KWHP/WHP METAR and TAF weather

Enter ICAO airport designator
Station Type Date Time Source
KWHP METAR 2021/03/03 20:55 UTC NOAA

KWHP 032055Z 13010KT 10SM BKN055 OVC065 09/05 A2987


Station Type Date Time Source
KWHP Decoded METAR 2021/03/03 20:55 UTC NOAA

Los Angeles, Whiteman Airport, CA, United States (KWHP) 34-15N 118-24W
Mar 03, 2021 - 03:55 PM EST / 2021.03.03 2055 UTC
Wind: from the SE (130 degrees) at 12 MPH (10 KT):0
Visibility: 10 mile(s):0
Sky conditions: overcast
Temperature: 48 F (9 C)
Dew Point: 41 F (5 C)
Relative Humidity: 75%
Pressure (altimeter): 29.87 in. Hg (1011 hPa)
ob: KWHP 032055Z 13010KT 10SM BKN055 OVC065 09/05 A2987
cycle: 21

Station Type Date Time Source
KWHP TAF UTC NOAA

Error!

Example: see airport list